Time;durP1;ratioP1;P1;durP2;ratioP2;P2;SDS_P1;SDS_P2;PMS_P1;PMS_P2;Temp;Humidity;BMP_temperature;BMP_pressure;BME280_temperature;BME280_humidity;BME280_pressure;Samples;Min_cycle;Max_cycle;Signal;HPM_P1;HPM_P2
2022/08/18 00:00:13;;;;;;;12.78;5.47;;;;;;;19.36;100.00;99090.28;1717786;82;21572;-52
2022/08/18 00:02:41;;;;;;;7.03;4.33;;;;;;;19.35;100.00;99085.83;1726211;82;21016;-50
2022/08/18 00:05:09;;;;;;;4.42;4.10;;;;;;;19.32;100.00;99089.34;1720472;82;21150;-52
2022/08/18 00:07:37;;;;;;;4.92;4.35;;;;;;;19.27;100.00;99087.92;1722678;82;20964;-52
2022/08/18 00:10:04;;;;;;;3.98;3.67;;;;;;;19.23;100.00;99081.02;1714706;82;21051;-52
2022/08/18 00:12:38;;;;;;;7.70;5.10;;;;;;;19.23;100.00;99080.16;1719479;82;21088;-51
2022/08/18 00:15:08;;;;;;;7.80;4.58;;;;;;;19.23;100.00;99082.88;1715903;82;21090;-55
2022/08/18 00:17:35;;;;;;;10.72;4.20;;;;;;;19.20;100.00;99081.33;1711085;81;21622;-50
2022/08/18 00:20:07;;;;;;;8.93;4.15;;;;;;;19.20;100.00;99076.38;1711052;82;21123;-50
2022/08/18 00:22:34;;;;;;;6.97;3.27;;;;;;;19.21;100.00;99082.19;1713814;82;21051;-51
2022/08/18 00:25:01;;;;;;;9.43;4.03;;;;;;;19.22;100.00;99075.20;1735122;80;21033;-50
2022/08/18 00:27:29;;;;;;;8.60;4.70;;;;;;;19.23;100.00;99074.70;1738040;80;21051;-53
2022/08/18 00:29:59;;;;;;;11.65;4.20;;;;;;;19.21;100.00;99072.14;1735614;80;21147;-53
2022/08/18 00:32:29;;;;;;;10.40;4.47;;;;;;;19.20;100.00;99081.33;1733505;80;21062;-51
2022/08/18 00:34:56;;;;;;;6.60;5.00;;;;;;;19.18;100.00;99075.14;1697471;83;21360;-51
2022/08/18 00:37:22;;;;;;;10.72;4.75;;;;;;;19.15;100.00;99071.33;1737571;80;21054;-52
2022/08/18 00:39:51;;;;;;;11.15;4.83;;;;;;;19.13;100.00;99082.05;1734621;80;21037;-51
2022/08/18 00:42:25;;;;;;;8.05;4.45;;;;;;;19.08;100.00;99075.64;1734341;80;21243;-52
2022/08/18 00:44:53;;;;;;;8.23;4.45;;;;;;;19.04;100.00;99076.09;1736746;80;21127;-50
2022/08/18 00:47:19;;;;;;;9.28;5.33;;;;;;;19.02;100.00;99083.05;1733705;80;21065;-52
2022/08/18 00:49:46;;;;;;;4.65;3.10;;;;;;;19.00;100.00;99083.69;1739652;80;21061;-51
2022/08/18 00:52:13;;;;;;;8.93;4.58;;;;;;;18.99;100.00;99086.55;1736955;81;21070;-52
2022/08/18 00:54:40;;;;;;;9.00;3.83;;;;;;;18.99;100.00;99090.14;1735716;80;21235;-50
2022/08/18 00:57:07;;;;;;;9.13;3.87;;;;;;;18.99;100.00;99088.78;1737014;80;21078;-52
2022/08/18 00:59:54;;;;;;;5.22;3.60;;;;;;;19.01;100.00;99088.64;1731801;81;21596;-50
2022/08/18 01:02:25;;;;;;;10.78;4.08;;;;;;;19.01;100.00;99081.82;1734118;81;21111;-53
2022/08/18 01:04:57;;;;;;;6.90;3.70;;;;;;;18.99;100.00;99075.14;1734579;81;20916;-51
2022/08/18 01:07:28;;;;;;;6.78;3.62;;;;;;;18.97;100.00;99071.69;1733632;81;21246;-51
2022/08/18 01:09:57;;;;;;;6.42;4.28;;;;;;;18.96;100.00;99080.91;1736681;81;21021;-54
2022/08/18 01:12:25;;;;;;;4.05;3.65;;;;;;;18.95;100.00;99077.81;1737763;81;21038;-52
2022/08/18 01:14:51;;;;;;;7.83;3.58;;;;;;;18.95;100.00;99076.95;1735844;81;21042;-51
2022/08/18 01:22:57;;;;;;;6.90;3.92;;;;;;;18.85;100.00;99081.89;1735687;80;21030;-51
2022/08/18 01:28:08;;;;;;;9.03;4.30;;;;;;;18.80;100.00;99075.98;1705550;82;21123;-54
2022/08/18 01:30:47;;;;;;;5.97;4.00;;;;;;;18.78;100.00;99074.43;1708747;82;21137;-51
2022/08/18 01:33:17;;;;;;;11.57;4.03;;;;;;;18.77;100.00;99072.70;1701789;82;21423;-52
2022/08/18 01:35:48;;;;;;;9.68;3.85;;;;;;;18.77;100.00;99076.29;1701116;82;21034;-52
2022/08/18 01:38:19;;;;;;;8.65;3.77;;;;;;;18.76;100.00;99080.02;1702615;82;21058;-54
2022/08/18 01:40:45;;;;;;;3.95;3.55;;;;;;;18.73;100.00;99078.92;1712227;82;21073;-51
2022/08/18 01:43:13;;;;;;;4.92;2.90;;;;;;;18.72;100.00;99084.52;1705701;82;21093;-50
2022/08/18 01:45:40;;;;;;;5.97;3.62;;;;;;;18.72;100.00;99085.38;1700885;82;21125;-50
2022/08/18 01:48:08;;;;;;;8.15;3.10;;;;;;;18.71;100.00;99087.77;1704114;82;21452;-52
2022/08/18 01:50:35;;;;;;;5.62;3.47;;;;;;;18.67;100.00;99089.05;1705886;82;21125;-52
2022/08/18 01:53:04;;;;;;;9.55;3.35;;;;;;;18.65;100.00;99091.54;1708995;82;21097;-51
2022/08/18 01:55:35;;;;;;;8.78;4.00;;;;;;;18.60;100.00;99096.56;1704614;82;21037;-52
2022/08/18 01:58:02;;;;;;;8.75;3.75;;;;;;;18.57;100.00;99095.47;1701782;82;21700;-50
2022/08/18 02:00:31;;;;;;;6.10;4.08;;;;;;;18.54;100.00;99100.16;1704102;82;21498;-51
2022/08/18 02:02:59;;;;;;;5.35;3.83;;;;;;;18.52;100.00;99093.14;1702709;82;21459;-51
2022/08/18 02:05:35;;;;;;;10.38;4.00;;;;;;;18.52;100.00;99100.83;1703195;82;20914;-50
2022/08/18 02:08:03;;;;;;;5.75;3.17;;;;;;;18.51;100.00;99098.23;1706900;82;21381;-49
2022/08/18 02:10:30;;;;;;;8.83;3.67;;;;;;;18.51;100.00;99095.50;1711023;82;21213;-50
2022/08/18 02:12:57;;;;;;;6.17;3.60;;;;;;;18.49;100.00;99100.23;1712432;82;21592;-50
2022/08/18 02:15:24;;;;;;;5.87;3.27;;;;;;;18.48;100.00;99098.50;1708592;82;21067;-50
2022/08/18 02:17:50;;;;;;;5.78;3.87;;;;;;;18.48;100.00;99101.22;1696406;82;21093;-51
2022/08/18 02:20:18;;;;;;;5.10;3.60;;;;;;;18.48;100.00;99098.50;1708089;82;21108;-54
2022/08/18 02:22:46;;;;;;;6.35;3.20;;;;;;;18.49;100.00;99096.14;1706279;82;21146;-50
2022/08/18 02:25:13;;;;;;;4.20;3.85;;;;;;;18.50;100.00;99091.05;1705114;81;21027;-51
2022/08/18 02:27:41;;;;;;;7.08;3.47;;;;;;;18.50;100.00;99094.64;1704283;82;21441;-50
2022/08/18 02:30:10;;;;;;;3.55;3.27;;;;;;;18.53;100.00;99101.69;1707504;82;21640;-51
2022/08/18 02:32:36;;;;;;;9.25;3.50;;;;;;;18.56;100.00;99099.16;1707598;82;20974;-51
2022/08/18 02:35:05;;;;;;;3.42;2.80;;;;;;;18.57;100.00;99096.33;1706859;82;21046;-50
2022/08/18 02:37:31;;;;;;;7.05;2.67;;;;;;;18.57;100.00;99092.24;1706722;82;20956;-52
2022/08/18 02:39:58;;;;;;;6.22;2.77;;;;;;;18.57;100.00;99089.52;1707579;82;21012;-51
2022/08/18 02:42:25;;;;;;;6.03;2.62;;;;;;;18.61;100.00;99091.48;1700632;82;21040;-54
2022/08/18 02:44:52;;;;;;;3.27;1.92;;;;;;;18.61;100.00;99092.34;1701361;82;21033;-51
2022/08/18 02:47:20;;;;;;;5.45;2.60;;;;;;;18.63;100.00;99100.38;1705126;82;21662;-49
2022/08/18 02:49:47;;;;;;;5.40;2.67;;;;;;;18.64;100.00;99098.85;1706856;82;21399;-50
2022/08/18 02:52:13;;;;;;;5.72;2.72;;;;;;;18.67;100.00;99101.80;1700073;82;21033;-50
2022/08/18 02:54:40;;;;;;;6.78;2.87;;;;;;;18.66;100.00;99095.49;1704838;82;21070;-50
2022/08/18 02:57:10;;;;;;;3.83;1.90;;;;;;;18.68;100.00;99098.95;1706972;82;21074;-49
2022/08/18 02:59:37;;;;;;;2.47;2.30;;;;;;;18.68;100.00;99096.22;1707558;82;21696;-50
2022/08/18 03:02:06;;;;;;;4.75;2.55;;;;;;;18.69;100.00;99097.95;1708700;82;21082;-50
2022/08/18 03:04:33;;;;;;;6.45;3.02;;;;;;;18.70;100.00;99096.95;1704582;82;21791;-50
2022/08/18 03:07:03;;;;;;;5.35;2.90;;;;;;;18.69;100.00;99106.12;1702128;82;21113;-50
2022/08/18 03:09:30;;;;;;;4.50;2.35;;;;;;;18.69;100.00;99106.12;1700008;82;21097;-52
2022/08/18 03:11:58;;;;;;;2.95;2.02;;;;;;;18.70;100.00;99106.49;1704355;82;21784;-51
2022/08/18 03:14:25;;;;;;;12.80;2.45;;;;;;;18.70;100.00;99111.08;1703087;82;21132;-52
2022/08/18 03:16:51;;;;;;;2.05;1.95;;;;;;;18.68;100.00;99107.63;1705700;82;21065;-51
2022/08/18 03:19:18;;;;;;;3.05;2.12;;;;;;;18.69;100.00;99107.48;1690485;82;21045;-52
2022/08/18 03:21:45;;;;;;;2.62;2.00;;;;;;;18.69;100.00;99109.34;1700179;82;21053;-52
2022/08/18 03:24:12;;;;;;;10.75;2.77;;;;;;;18.70;100.00;99107.86;1702661;81;21149;-53
2022/08/18 03:26:43;;;;;;;6.53;2.12;;;;;;;18.73;100.00;99103.46;1734328;81;21072;-50
2022/08/18 03:29:10;;;;;;;4.08;2.25;;;;;;;18.74;100.00;99105.19;1731933;81;21126;-50
2022/08/18 03:31:37;;;;;;;7.08;2.12;;;;;;;18.77;100.00;99103.55;1720018;81;21079;-50
2022/08/18 03:34:04;;;;;;;4.97;1.60;;;;;;;18.81;100.00;99109.06;1731063;81;21064;-50
2022/08/18 03:36:32;;;;;;;4.92;1.50;;;;;;;18.84;100.00;99108.80;1729061;81;21457;-51
2022/08/18 03:39:01;;;;;;;4.58;2.00;;;;;;;18.87;100.00;99104.94;1726063;81;21461;-50
2022/08/18 03:41:28;;;;;;;8.38;2.42;;;;;;;18.89;100.00;99110.58;1728824;81;21483;-52
2022/08/18 03:43:54;;;;;;;2.22;2.02;;;;;;;18.95;100.00;99124.67;1735146;81;21004;-53
2022/08/18 03:46:23;;;;;;;4.37;2.45;;;;;;;18.99;100.00;99123.37;1727294;81;21555;-51
2022/08/18 03:48:52;;;;;;;4.47;1.92;;;;;;;19.03;100.00;99122.09;1692322;82;21245;-49
2022/08/18 03:51:24;;;;;;;3.05;1.60;;;;;;;19.08;100.00;99123.87;1687442;83;21380;-49
2022/08/18 03:53:53;;;;;;;3.42;2.08;;;;;;;19.12;100.00;99122.61;1696947;82;21061;-54
2022/08/18 03:56:25;;;;;;;4.40;2.40;;;;;;;19.17;100.00;99130.70;1684433;83;21498;-51
2022/08/18 03:58:55;;;;;;;6.15;2.52;;;;;;;19.23;100.00;99127.40;1685856;83;21119;-51
2022/08/18 04:01:25;;;;;;;8.58;2.40;;;;;;;19.27;100.00;99132.08;1728626;81;21208;-51
2022/08/18 04:03:56;;;;;;;3.37;2.08;;;;;;;19.33;100.00;99141.05;1736597;81;20958;-52
2022/08/18 04:06:26;;;;;;;6.00;1.85;;;;;;;19.41;100.00;99133.00;1722120;81;21096;-50
2022/08/18 04:08:54;;;;;;;3.87;1.70;;;;;;;19.47;100.00;99132.47;1730844;81;21077;-50
2022/08/18 04:11:23;;;;;;;3.30;1.80;;;;;;;19.55;100.00;99127.65;1729448;81;21029;-50
2022/08/18 04:13:49;;;;;;;6.17;2.05;;;;;;;19.67;100.00;99128.33;1732852;81;21221;-51
2022/08/18 04:16:16;;;;;;;3.25;1.40;;;;;;;19.76;100.00;99122.85;1728318;81;21136;-52
2022/08/18 04:18:43;;;;;;;3.45;1.62;;;;;;;19.87;100.00;99127.29;1730262;81;21034;-53
2022/08/18 04:21:12;;;;;;;8.83;1.30;;;;;;;20.04;100.00;99133.35;1729922;81;21341;-53
2022/08/18 04:23:39;;;;;;;2.92;1.42;;;;;;;20.27;100.00;99128.37;1733139;81;20994;-50
2022/08/18 04:26:06;;;;;;;2.42;1.25;;;;;;;20.45;100.00;99126.59;1730278;80;21191;-54
2022/08/18 04:28:33;;;;;;;3.20;1.45;;;;;;;20.61;100.00;99133.63;1734549;81;21140;-52
2022/08/18 04:31:06;;;;;;;7.58;1.60;;;;;;;20.77;100.00;99136.55;1733716;81;21063;-52
2022/08/18 04:33:33;;;;;;;7.30;1.20;;;;;;;20.93;100.00;99131.77;1737430;81;21567;-52
2022/08/18 04:36:13;;;;;;;4.72;1.32;;;;;;;21.08;100.00;99134.86;1735841;80;21095;-50
2022/08/18 04:38:44;;;;;;;1.65;1.27;;;;;;;21.23;100.00;99137.94;1734506;81;21691;-51
2022/08/18 04:41:09;;;;;;;5.28;1.30;;;;;;;21.36;100.00;99131.04;1734769;81;21019;-51
2022/08/18 04:43:36;;;;;;;5.00;1.57;;;;;;;21.43;100.00;99136.77;1733629;81;21532;-52
2022/08/18 04:46:02;;;;;;;6.80;1.37;;;;;;;21.42;100.00;99129.06;1730708;81;21886;-50
2022/08/18 04:48:34;;;;;;;9.98;1.20;;;;;;;21.40;100.00;99137.08;1731131;81;21461;-51
2022/08/18 04:51:09;;;;;;;2.15;1.25;;;;;;;21.37;100.00;99138.74;1731736;81;22171;-52
2022/08/18 04:53:45;;;;;;;2.37;1.20;;;;;;;21.35;100.00;99136.16;1734044;80;22178;-52
2022/08/18 04:56:25;;;;;;;5.20;1.25;;;;;;;21.34;100.00;99138.58;1727937;80;21047;-52
2022/08/18 04:58:58;;;;;;;3.22;1.32;;;;;;;21.29;100.00;99141.41;1735315;81;21037;-51
2022/08/18 05:01:28;;;;;;;4.83;1.15;;;;;;;21.24;100.00;99146.50;1733563;80;21913;-53
2022/08/18 05:03:56;;;;;;;5.12;1.07;;;;;;;21.24;100.00;99147.36;1734372;81;21830;-54
2022/08/18 05:06:24;;;;;;;3.50;1.40;;;;;;;21.23;100.00;99147.01;1734873;80;21058;-52
2022/08/18 05:08:53;;;;;;;2.35;1.40;;;;;;;21.19;100.00;99149.69;1738948;80;21032;-51
2022/08/18 05:11:21;;;;;;;4.62;1.20;;;;;;;21.15;100.00;99148.27;1734136;80;20931;-54
2022/08/18 05:13:48;;;;;;;4.00;1.25;;;;;;;21.14;100.00;99147.40;1739502;80;20928;-54
2022/08/18 05:16:14;;;;;;;3.65;1.00;;;;;;;21.18;100.00;99143.03;1735264;80;21088;-51
2022/08/18 05:18:41;;;;;;;3.87;1.10;;;;;;;21.23;100.00;99149.75;1745471;80;20908;-51
2022/08/18 05:21:10;;;;;;;3.58;1.20;;;;;;;21.27;100.00;99149.77;1734656;80;21371;-55
2022/08/18 05:23:36;;;;;;;7.35;1.60;;;;;;;21.32;100.00;99147.95;1735284;80;20928;-54
2022/08/18 05:26:02;;;;;;;1.77;1.20;;;;;;;21.38;100.00;99150.91;1731570;80;20968;-51
2022/08/18 05:31:49;;;;;;;8.58;1.60;;;;;;;21.45;100.00;99141.05;1606723;81;984562;-52
2022/08/18 05:34:16;;;;;;;5.97;1.45;;;;;;;21.45;100.00;99141.05;1743841;80;20910;-50
2022/08/18 05:36:50;;;;;;;5.83;1.40;;;;;;;21.65;100.00;99144.48;1733267;81;20924;-51
2022/08/18 05:39:24;;;;;;;2.98;1.20;;;;;;;21.67;100.00;99138.34;1734813;81;21224;-52
2022/08/18 05:42:12;;;;;;;10.05;1.00;;;;;;;21.69;100.00;99146.41;1735763;80;21887;-52
2022/08/18 05:44:43;;;;;;;6.10;1.70;;;;;;;21.64;100.00;99147.37;1734692;80;20964;-51
2022/08/18 05:47:21;;;;;;;5.92;1.27;;;;;;;21.65;100.00;99153.20;1733312;81;20974;-52
2022/08/18 05:49:47;;;;;;;5.95;1.20;;;;;;;21.70;100.00;99156.31;1732777;80;21553;-52
2022/08/18 05:52:31;;;;;;;8.00;1.00;;;;;;;21.79;100.00;99149.38;1738882;80;21415;-53
2022/08/18 05:58:04;;;;;;;3.60;1.10;;;;;;;21.91;100.00;99159.58;1735275;80;20962;-51
2022/08/18 06:00:31;;;;;;;8.78;1.42;;;;;;;21.97;100.00;99166.28;1737853;80;21243;-54
2022/08/18 06:03:03;;;;;;;8.48;1.10;;;;;;;21.98;100.00;99159.82;1730812;80;21139;-54
2022/08/18 06:05:34;;;;;;;3.80;1.00;;;;;;;21.98;100.00;99156.57;1730117;81;21878;-51
2022/08/18 06:08:12;;;;;;;3.47;1.22;;;;;;;21.99;100.00;99165.14;1734389;81;21054;-52
2022/08/18 06:10:43;;;;;;;4.40;1.12;;;;;;;22.03;100.00;99156.11;1736014;81;21158;-54
2022/08/18 06:13:11;;;;;;;3.80;1.40;;;;;;;22.09;100.00;99170.53;1734787;80;21715;-51
2022/08/18 06:16:10;;;;;;;7.62;1.90;;;;;;;22.13;100.00;99165.06;1734810;81;21520;-51
2022/08/18 06:19:00;;;;;;;2.65;1.07;;;;;;;22.20;100.00;99168.90;1738300;81;21493;-55
2022/08/18 06:21:49;;;;;;;6.62;1.47;;;;;;;22.26;100.00;99167.73;1731617;81;21085;-52
2022/08/18 06:24:24;;;;;;;4.50;0.90;;;;;;;22.33;100.00;99162.45;1734994;80;21069;-55
2022/08/18 06:27:14;;;;;;;4.70;1.20;;;;;;;22.38;100.00;99165.55;1740492;80;21194;-53
2022/08/18 06:30:06;;;;;;;2.80;1.37;;;;;;;22.39;100.00;99163.16;1732900;81;21869;-51
2022/08/18 06:33:07;;;;;;;6.70;1.47;;;;;;;22.43;100.00;99165.94;1737029;80;22093;-50
2022/08/18 06:35:49;;;;;;;2.55;0.98;;;;;;;22.45;100.00;99162.53;1742436;80;21278;-53
2022/08/18 06:38:38;;;;;;;4.58;1.30;;;;;;;22.47;100.00;99163.71;1739922;80;21547;-52
2022/08/18 06:41:21;;;;;;;4.00;1.27;;;;;;;22.48;100.00;99162.19;1737000;80;21060;-52
2022/08/18 06:43:57;;;;;;;5.20;0.90;;;;;;;22.51;100.00;99156.38;1735140;80;21047;-53
2022/08/18 06:46:45;;;;;;;6.05;1.40;;;;;;;22.56;100.00;99168.22;1733770;80;21116;-51
2022/08/18 06:49:33;;;;;;;3.45;1.20;;;;;;;22.60;100.00;99171.86;1701951;80;21454;-53
2022/08/18 06:52:21;;;;;;;3.77;1.00;;;;;;;22.62;100.00;99168.95;1737478;80;21324;-54
2022/08/18 06:54:49;;;;;;;7.10;0.98;;;;;;;22.62;100.00;99165.70;1739639;80;21034;-55
2022/08/18 06:57:29;;;;;;;6.85;1.27;;;;;;;22.63;100.00;99174.77;1739725;81;21716;-51
2022/08/18 06:59:59;;;;;;;8.13;1.62;;;;;;;22.65;100.00;99177.70;1744235;80;21226;-53
2022/08/18 07:06:27;;;;;;;5.47;1.37;;;;;;;22.67;100.00;99174.80;1569202;80;984945;-52
2022/08/18 07:08:57;;;;;;;2.45;1.22;;;;;;;22.67;100.00;99174.80;1739532;80;21078;-54
2022/08/18 07:11:32;;;;;;;6.80;1.35;;;;;;;22.94;100.00;99165.50;1738567;80;21273;-55
2022/08/18 07:14:23;;;;;;;2.50;1.65;;;;;;;22.98;100.00;99161.39;1741123;80;21029;-51
2022/08/18 07:16:50;;;;;;;7.45;2.00;;;;;;;22.99;100.00;99158.98;1738259;82;21110;-50
2022/08/18 07:19:19;;;;;;;8.63;1.98;;;;;;;23.01;100.00;99166.55;1731075;80;21072;-53
2022/08/18 07:22:02;;;;;;;3.65;1.30;;;;;;;23.03;100.00;99160.91;1736058;82;21018;-51
2022/08/18 07:24:46;;;;;;;2.45;1.32;;;;;;;23.05;100.00;99161.09;1680780;80;975627;-52
2022/08/18 07:27:41;;;;;;;7.85;1.60;;;;;;;23.09;100.00;99166.58;1740407;80;21537;-53
2022/08/18 07:30:20;;;;;;;6.65;1.20;;;;;;;23.12;100.00;99166.25;1717572;82;21050;-51
2022/08/18 07:33:08;;;;;;;7.67;1.50;;;;;;;23.19;100.00;99165.06;1743721;80;21064;-51
2022/08/18 07:35:48;;;;;;;4.60;1.50;;;;;;;23.24;100.00;99169.52;1724073;80;21296;-52
2022/08/18 07:38:30;;;;;;;6.50;2.10;;;;;;;23.33;100.00;99169.87;1743612;81;21047;-52
2022/08/18 07:41:19;;;;;;;5.10;1.30;;;;;;;23.39;100.00;99178.84;1731900;81;21058;-55
2022/08/18 07:44:02;;;;;;;4.28;1.22;;;;;;;23.46;100.00;99173.01;1741234;80;21510;-53
2022/08/18 07:46:37;;;;;;;3.90;1.00;;;;;;;23.56;100.00;99169.59;1741449;80;21114;-51
2022/08/18 07:49:05;;;;;;;9.70;1.50;;;;;;;23.62;100.00;99164.81;1739197;80;21133;-54
2022/08/18 07:51:53;;;;;;;9.68;1.10;;;;;;;23.65;100.00;99167.20;1741666;80;21241;-53
2022/08/18 07:55:36;;;;;;;4.12;1.20;;;;;;;23.70;100.00;99170.31;1671788;80;985156;-56
2022/08/18 07:58:33;;;;;;;6.37;1.10;;;;;;;23.70;100.00;99170.31;1550010;81;975478;-51
2022/08/18 08:01:26;;;;;;;5.58;1.20;;;;;;;23.93;100.00;99174.59;1730803;80;21114;-56
2022/08/18 08:04:13;;;;;;;4.73;1.10;;;;;;;23.96;100.00;99168.75;1739902;81;21029;-57
2022/08/18 08:06:47;;;;;;;4.95;1.30;;;;;;;24.02;100.00;99169.42;1740988;80;21596;-55
2022/08/18 08:09:54;;;;;;;9.05;1.52;;;;;;;24.10;100.00;99164.43;1738090;80;21579;-52
2022/08/18 08:12:38;;;;;;;3.75;1.15;;;;;;;24.18;100.00;99162.18;1741986;80;21069;-53
2022/08/18 08:15:08;;;;;;;;;;;;;;;24.29;100.00;99164.09;1743902;80;20932;-53
2022/08/18 08:18:17;;;;;;;7.37;0.80;;;;;;;24.36;100.00;99166.48;1743923;80;20212;-54
2022/08/18 08:20:54;;;;;;;10.28;1.10;;;;;;;24.39;100.00;99163.38;1741610;81;21325;-51
2022/08/18 08:23:26;;;;;;;4.92;0.88;;;;;;;24.48;100.00;99173.84;1742577;81;21195;-53
2022/08/18 08:26:34;;;;;;;5.83;1.25;;;;;;;24.58;100.00;99169.52;1744843;80;20930;-52
2022/08/18 08:29:09;;;;;;;3.17;1.35;;;;;;;24.64;100.00;99171.04;1729872;81;20952;-55
2022/08/18 08:32:01;;;;;;;3.98;0.95;;;;;;;24.71;100.00;99178.06;1743154;80;21527;-53
2022/08/18 08:37:49;;;;;;;7.20;1.00;;;;;;;24.75;100.00;99183.02;1585309;80;985085;-51
2022/08/18 08:40:33;;;;;;;2.55;0.80;;;;;;;24.75;100.00;99183.02;1727556;80;568098;-51
2022/08/18 08:58:37;;;;;;;2.40;1.00;;;;;;;-144.06;100.00;116433.64;1640159;82;986035;-52
2022/08/18 09:02:11;;;;;;;10.53;1.17;;;;;;;24.87;100.00;99193.99;1742829;80;21014;-54
2022/08/18 09:05:12;;;;;;;2.85;1.15;;;;;;;24.87;100.00;99193.99;1725272;80;906419;-54
2022/08/18 09:08:12;;;;;;;2.75;0.90;;;;;;;25.32;100.00;99192.43;1737937;80;21038;-51
2022/08/18 09:10:52;;;;;;;3.42;1.10;;;;;;;25.26;100.00;99185.72;1741728;80;21046;-51
2022/08/18 09:13:42;;;;;;;3.10;1.10;;;;;;;25.28;100.00;99195.19;1737609;80;21060;-52
2022/08/18 09:16:28;;;;;;;1.98;0.90;;;;;;;25.31;100.00;99200.35;1736496;81;21447;-52
2022/08/18 09:19:30;;;;;;;4.03;1.05;;;;;;;25.31;100.00;99197.59;1737991;80;21903;-53
2022/08/18 09:22:10;;;;;;;2.55;0.82;;;;;;;25.32;100.00;99195.70;1742522;80;21048;-54
2022/08/18 09:24:47;;;;;;;1.65;0.90;;;;;;;25.32;100.00;99183.30;1739861;81;21062;-53
2022/08/18 09:27:40;;;;;;;2.67;0.90;;;;;;;25.36;100.00;99185.50;1735775;80;21041;-53
2022/08/18 09:30:08;;;;;;;6.70;1.00;;;;;;;25.42;100.00;99190.30;1737716;80;21038;-57
2022/08/18 09:32:40;;;;;;;10.05;1.55;;;;;;;25.50;100.00;99193.00;1733968;80;21151;-53
2022/08/18 09:35:37;;;;;;;3.58;0.88;;;;;;;25.57;100.00;99193.98;1733067;80;21097;-52
2022/08/18 09:41:33;;;;;;;3.33;1.05;;;;;;;25.76;100.00;99194.58;1771022;78;23361;-52
2022/08/18 09:44:09;;;;;;;2.02;0.80;;;;;;;25.72;100.00;99197.34;1745540;81;21520;-51
2022/08/18 09:46:49;;;;;;;1.52;0.90;;;;;;;25.66;100.00;99198.95;1745769;81;20956;-52
2022/08/18 09:49:29;;;;;;;3.77;0.90;;;;;;;25.67;100.00;99191.55;1739449;80;21048;-53
2022/08/18 09:51:58;;;;;;;1.50;1.00;;;;;;;25.71;100.00;99195.11;1742635;80;21406;-53
2022/08/18 09:54:30;;;;;;;6.87;0.90;;;;;;;25.76;100.00;99194.58;1739016;80;21144;-53
2022/08/18 09:57:23;;;;;;;2.85;1.02;;;;;;;25.80;100.00;99188.49;1738640;81;21104;-52
2022/08/18 10:00:10;;;;;;;4.80;1.00;;;;;;;25.85;100.00;99197.09;1698967;82;21110;-54
2022/08/18 10:02:41;;;;;;;4.10;1.10;;;;;;;25.87;100.00;99192.22;1701824;82;21354;-51
2022/08/18 10:05:20;;;;;;;2.95;0.90;;;;;;;25.91;100.00;99194.95;1693404;82;21029;-51
2022/08/18 10:08:05;;;;;;;5.97;0.90;;;;;;;25.97;100.00;99194.73;1699416;82;21190;-52
2022/08/18 10:10:48;;;;;;;2.50;0.90;;;;;;;26.02;100.00;99192.81;1700341;82;21101;-55
2022/08/18 10:13:52;;;;;;;7.08;1.10;;;;;;;26.08;100.00;99190.67;1699424;82;21532;-52
2022/08/18 10:16:45;;;;;;;6.15;1.10;;;;;;;26.13;100.00;99184.92;1668868;83;21434;-53
2022/08/18 10:19:23;;;;;;;9.23;0.98;;;;;;;26.18;100.00;99189.89;1687955;82;21077;-51
2022/08/18 10:22:00;;;;;;;4.83;0.80;;;;;;;26.24;100.00;99181.72;1698640;82;21105;-52
2022/08/18 10:24:38;;;;;;;2.37;0.90;;;;;;;26.32;100.00;99178.91;1700918;82;21200;-51
2022/08/18 10:27:34;;;;;;;5.55;0.88;;;;;;;26.38;100.00;99180.05;1694883;82;21803;-55
2022/08/18 10:30:02;;;;;;;6.92;1.10;;;;;;;26.42;100.00;99180.55;1700246;81;21580;-52
2022/08/18 10:32:38;;;;;;;2.47;0.80;;;;;;;26.44;100.00;99188.98;1700899;82;22032;-53
2022/08/18 10:35:36;;;;;;;8.38;1.45;;;;;;;26.48;100.00;99186.67;1699197;82;21128;-50
2022/08/18 10:38:23;;;;;;;1.20;0.90;;;;;;;26.53;100.00;99185.61;1687588;82;21544;-50
2022/08/18 10:40:57;;;;;;;2.95;1.05;;;;;;;26.54;100.00;99194.22;1708525;81;21774;-53
2022/08/18 10:44:05;;;;;;;1.55;0.93;;;;;;;26.56;100.00;99197.11;1598880;81;984897;-53
2022/08/18 10:46:45;;;;;;;5.15;0.90;;;;;;;26.56;100.00;99197.11;1592957;81;975394;-55
2022/08/18 10:52:21;;;;;;;3.47;0.80;;;;;;;26.56;100.00;99197.11;1536668;81;985102;-50
2022/08/18 10:55:30;;;;;;;2.58;0.80;;;;;;;26.56;100.00;99197.11;1433258;82;985069;-52
2022/08/18 11:04:29;;;;;;;4.67;0.80;;;;;;;26.56;100.00;99197.11;1461367;82;984832;-51
2022/08/18 11:52:29;;;;;;;9.58;0.94;;;;;;;26.56;100.00;99197.11;1453236;82;985245;-54
2022/08/18 11:55:01;;;;;;;1.20;0.80;;;;;;;26.56;100.00;99197.11;1569343;82;975437;-53
2022/08/18 12:09:21;;;;;;;6.17;5.73;;;;;;;27.53;100.00;99170.14;1504162;82;974863;-55
2022/08/18 12:15:35;;;;;;;1.30;0.80;;;;;;;27.53;100.00;99170.14;1507600;82;985275;-52
2022/08/18 12:18:02;;;;;;;6.20;1.20;;;;;;;27.53;100.00;99170.14;1689998;82;21058;-54
2022/08/18 12:32:24;;;;;;;2.97;0.80;;;;;;;27.50;100.00;99161.70;1609300;82;975586;-52
2022/08/18 12:34:51;;;;;;;27.48;11.90;;;;;;;27.50;100.00;99161.70;1688815;82;21080;-53
2022/08/18 12:37:20;;;;;;;9.48;4.90;;;;;;;27.50;100.00;99163.09;1702339;82;21085;-55
2022/08/18 12:43:33;;;;;;;5.96;2.58;;;;;;;27.48;100.00;99158.80;1456247;82;984668;-52
2022/08/18 12:45:59;;;;;;;3.10;0.85;;;;;;;27.48;100.00;99158.80;1693527;82;21078;-54
2022/08/18 12:48:27;;;;;;;4.03;0.75;;;;;;;27.59;100.00;99156.94;1684864;82;21137;-52
2022/08/18 13:58:14;;;;;;;1.67;0.70;;;;;;;27.57;100.00;99165.09;1597784;82;985136;-54
2022/08/18 14:00:41;;;;;;;3.42;0.75;;;;;;;27.57;100.00;99165.09;1689994;82;21059;-54
2022/08/18 14:03:07;;;;;;;1.20;0.70;;;;;;;27.82;100.00;99156.20;1688943;82;21387;-54
2022/08/18 14:05:34;;;;;;;5.67;0.70;;;;;;;27.81;100.00;99164.20;1686923;82;21134;-54
2022/08/18 14:08:01;;;;;;;7.42;1.15;;;;;;;27.82;100.00;99169.17;1710934;82;21239;-53
2022/08/18 14:10:28;;;;;;;3.72;0.80;;;;;;;27.81;100.00;99161.43;1696810;82;21667;-56
2022/08/18 14:12:55;;;;;;;3.35;0.80;;;;;;;27.82;100.00;99171.94;1705730;82;21063;-52
2022/08/18 14:15:24;;;;;;;3.77;0.70;;;;;;;27.84;100.00;99179.52;1698938;82;21300;-53
2022/08/18 14:17:50;;;;;;;3.02;0.70;;;;;;;27.82;100.00;99170.55;1688960;82;21084;-52
2022/08/18 14:30:17;;;;;;;1.90;0.80;;;;;;;27.81;100.00;99186.84;1448541;82;984921;-49
2022/08/18 14:35:25;;;;;;;4.42;1.56;;;;;;;27.81;100.00;99186.84;1451905;82;984265;-52
2022/08/18 14:49:46;;;;;;;2.02;0.80;;;;;;;27.81;100.00;99186.84;1519352;82;975558;-52
2022/08/18 14:52:12;;;;;;;3.47;0.60;;;;;;;27.81;100.00;99186.84;1688479;82;21842;-51
2022/08/18 14:54:39;;;;;;;4.03;1.12;;;;;;;27.90;100.00;99198.63;1705594;81;21381;-51
2022/08/18 14:57:08;;;;;;;1.60;0.88;;;;;;;27.83;100.00;99193.01;1709051;81;21113;-53
2022/08/18 14:59:34;;;;;;;5.25;0.60;;;;;;;27.74;100.00;99193.66;1706803;81;21137;-53
2022/08/18 15:02:00;;;;;;;2.67;0.60;;;;;;;27.74;100.00;99201.96;1704074;81;21203;-53
2022/08/18 15:04:27;;;;;;;1.52;0.70;;;;;;;27.74;100.00;99201.96;1713569;81;21936;-52
2022/08/18 15:06:53;;;;;;;3.27;0.70;;;;;;;27.69;100.00;99203.62;1710215;81;21105;-56
2022/08/18 15:09:21;;;;;;;4.25;1.22;;;;;;;27.67;100.00;99198.28;1687334;82;21514;-52
2022/08/18 15:11:49;;;;;;;4.47;0.70;;;;;;;27.64;100.00;99218.05;1696350;82;21102;-52
2022/08/18 15:14:17;;;;;;;3.55;0.70;;;;;;;27.64;100.00;99215.80;1683066;82;214791;-55
2022/08/18 15:16:44;;;;;;;2.95;0.65;;;;;;;27.61;100.00;99210.13;1683984;82;21217;-51
2022/08/18 15:19:10;;;;;;;4.40;0.70;;;;;;;27.60;100.00;99213.95;1692330;82;21122;-52
2022/08/18 15:27:07;;;;;;;3.87;1.20;;;;;;;27.55;100.00;99214.21;1682543;82;21161;-51
2022/08/18 15:29:33;;;;;;;2.00;0.70;;;;;;;27.50;100.00;99222.52;1684029;82;22383;-54
2022/08/18 15:32:01;;;;;;;2.58;0.65;;;;;;;27.47;100.00;99209.63;1690157;82;21074;-52
2022/08/18 15:34:28;;;;;;;1.57;0.70;;;;;;;27.46;100.00;99218.97;1694694;82;21090;-53
2022/08/18 15:36:55;;;;;;;3.80;0.70;;;;;;;27.44;100.00;99223.83;1647752;85;21122;-54
2022/08/18 15:39:23;;;;;;;2.50;0.60;;;;;;;27.43;100.00;99222.97;1709018;81;21563;-51